sensor_id;sensor_type;location;lat;lon;timestamp;temperature;humidity
35796;DHT22;21916;52.428;13.302;2022-07-22T00:02:24;19.80;99.90
35796;DHT22;21916;52.428;13.302;2022-07-22T00:04:50;19.90;99.90
35796;DHT22;21916;52.428;13.302;2022-07-22T00:07:16;19.80;99.90
35796;DHT22;21916;52.428;13.302;2022-07-22T00:09:42;19.80;99.90
35796;DHT22;21916;52.428;13.302;2022-07-22T00:12:08;19.80;99.90
35796;DHT22;21916;52.428;13.302;2022-07-22T00:14:34;19.80;99.90
35796;DHT22;21916;52.428;13.302;2022-07-22T00:17:00;19.80;99.90
35796;DHT22;21916;52.428;13.302;2022-07-22T00:19:27;19.90;99.90
35796;DHT22;21916;52.428;13.302;2022-07-22T00:21:53;19.80;99.90
35796;DHT22;21916;52.428;13.302;2022-07-22T00:24:19;19.90;99.90
35796;DHT22;21916;52.428;13.302;2022-07-22T00:26:45;19.90;99.90
35796;DHT22;21916;52.428;13.302;2022-07-22T00:29:10;19.80;99.90
35796;DHT22;21916;52.428;13.302;2022-07-22T00:31:37;19.80;99.90
35796;DHT22;21916;52.428;13.302;2022-07-22T00:34:03;19.80;99.90
35796;DHT22;21916;52.428;13.302;2022-07-22T00:36:32;19.90;99.90
35796;DHT22;21916;52.428;13.302;2022-07-22T00:38:59;19.90;99.90
35796;DHT22;21916;52.428;13.302;2022-07-22T00:41:25;19.80;99.90
35796;DHT22;21916;52.428;13.302;2022-07-22T00:44:01;19.70;99.90
35796;DHT22;21916;52.428;13.302;2022-07-22T00:46:29;19.70;99.90
35796;DHT22;21916;52.428;13.302;2022-07-22T00:48:55;19.70;99.90
35796;DHT22;21916;52.428;13.302;2022-07-22T00:51:23;19.60;99.90
35796;DHT22;21916;52.428;13.302;2022-07-22T00:53:51;19.60;99.90
35796;DHT22;21916;52.428;13.302;2022-07-22T00:56:18;19.50;99.90
35796;DHT22;21916;52.428;13.302;2022-07-22T00:58:46;19.60;99.90
35796;DHT22;21916;52.428;13.302;2022-07-22T01:01:12;19.60;99.90
35796;DHT22;21916;52.428;13.302;2022-07-22T01:03:39;19.60;99.90
35796;DHT22;21916;52.428;13.302;2022-07-22T01:06:05;19.70;99.90
35796;DHT22;21916;52.428;13.302;2022-07-22T01:08:32;19.60;99.90
35796;DHT22;21916;52.428;13.302;2022-07-22T01:11:14;19.60;99.90
35796;DHT22;21916;52.428;13.302;2022-07-22T01:13:42;19.50;99.90
35796;DHT22;21916;52.428;13.302;2022-07-22T01:16:09;19.50;99.90
35796;DHT22;21916;52.428;13.302;2022-07-22T01:18:36;19.50;99.90
35796;DHT22;21916;52.428;13.302;2022-07-22T01:21:03;19.40;99.90
35796;DHT22;21916;52.428;13.302;2022-07-22T01:23:30;19.40;99.90
35796;DHT22;21916;52.428;13.302;2022-07-22T01:25:56;19.40;99.90
35796;DHT22;21916;52.428;13.302;2022-07-22T01:28:22;19.30;99.90
35796;DHT22;21916;52.428;13.302;2022-07-22T01:30:48;19.30;99.90
35796;DHT22;21916;52.428;13.302;2022-07-22T01:33:19;19.20;99.90
35796;DHT22;21916;52.428;13.302;2022-07-22T01:35:46;19.20;99.90
35796;DHT22;21916;52.428;13.302;2022-07-22T01:38:13;19.10;99.90
35796;DHT22;21916;52.428;13.302;2022-07-22T01:40:39;19.10;99.90
35796;DHT22;21916;52.428;13.302;2022-07-22T01:43:05;19.10;99.90
35796;DHT22;21916;52.428;13.302;2022-07-22T01:45:32;19.00;99.90
35796;DHT22;21916;52.428;13.302;2022-07-22T01:47:58;19.00;99.90
35796;DHT22;21916;52.428;13.302;2022-07-22T01:50:25;19.10;99.90
35796;DHT22;21916;52.428;13.302;2022-07-22T01:52:51;19.00;99.90
35796;DHT22;21916;52.428;13.302;2022-07-22T01:55:18;19.00;99.90
35796;DHT22;21916;52.428;13.302;2022-07-22T01:57:44;19.00;99.90
35796;DHT22;21916;52.428;13.302;2022-07-22T02:00:22;18.90;99.90
35796;DHT22;21916;52.428;13.302;2022-07-22T02:02:48;18.80;99.90
35796;DHT22;21916;52.428;13.302;2022-07-22T02:05:15;18.90;99.90
35796;DHT22;21916;52.428;13.302;2022-07-22T02:07:41;18.70;99.90
35796;DHT22;21916;52.428;13.302;2022-07-22T02:10:07;18.80;99.90
35796;DHT22;21916;52.428;13.302;2022-07-22T02:12:34;18.80;99.90
35796;DHT22;21916;52.428;13.302;2022-07-22T02:15:03;18.80;99.90
35796;DHT22;21916;52.428;13.302;2022-07-22T02:17:29;18.70;99.90
35796;DHT22;21916;52.428;13.302;2022-07-22T02:19:55;18.70;99.90
35796;DHT22;21916;52.428;13.302;2022-07-22T02:22:20;18.60;99.90
35796;DHT22;21916;52.428;13.302;2022-07-22T02:24:47;18.60;99.90
35796;DHT22;21916;52.428;13.302;2022-07-22T02:27:13;18.60;99.90
35796;DHT22;21916;52.428;13.302;2022-07-22T02:29:40;18.50;99.90
35796;DHT22;21916;52.428;13.302;2022-07-22T02:32:06;18.50;99.90
35796;DHT22;21916;52.428;13.302;2022-07-22T02:34:32;18.50;99.90
35796;DHT22;21916;52.428;13.302;2022-07-22T02:36:58;18.50;99.90
35796;DHT22;21916;52.428;13.302;2022-07-22T02:39:25;18.50;99.90
35796;DHT22;21916;52.428;13.302;2022-07-22T02:41:51;18.40;99.90
35796;DHT22;21916;52.428;13.302;2022-07-22T02:44:17;18.40;99.90
35796;DHT22;21916;52.428;13.302;2022-07-22T02:46:43;18.40;99.90
35796;DHT22;21916;52.428;13.302;2022-07-22T02:49:21;18.40;99.90
35796;DHT22;21916;52.428;13.302;2022-07-22T02:51:47;18.40;99.90
35796;DHT22;21916;52.428;13.302;2022-07-22T02:54:14;18.40;99.90
35796;DHT22;21916;52.428;13.302;2022-07-22T02:56:40;18.40;99.90
35796;DHT22;21916;52.428;13.302;2022-07-22T02:59:06;18.20;99.90
35796;DHT22;21916;52.428;13.302;2022-07-22T03:01:32;18.30;99.90
35796;DHT22;21916;52.428;13.302;2022-07-22T03:04:02;18.30;99.90
35796;DHT22;21916;52.428;13.302;2022-07-22T03:06:31;18.20;99.90
35796;DHT22;21916;52.428;13.302;2022-07-22T03:09:06;18.20;99.90
35796;DHT22;21916;52.428;13.302;2022-07-22T03:11:34;18.20;99.90
35796;DHT22;21916;52.428;13.302;2022-07-22T03:14:01;18.30;99.90
35796;DHT22;21916;52.428;13.302;2022-07-22T03:16:28;18.30;99.90
35796;DHT22;21916;52.428;13.302;2022-07-22T03:18:55;18.20;99.90
35796;DHT22;21916;52.428;13.302;2022-07-22T03:21:22;18.20;99.90
35796;DHT22;21916;52.428;13.302;2022-07-22T03:23:50;18.10;99.90
35796;DHT22;21916;52.428;13.302;2022-07-22T03:26:23;18.10;99.90
35796;DHT22;21916;52.428;13.302;2022-07-22T03:28:50;18.10;99.90
35796;DHT22;21916;52.428;13.302;2022-07-22T03:31:16;18.10;99.90
35796;DHT22;21916;52.428;13.302;2022-07-22T03:33:43;18.10;99.90
35796;DHT22;21916;52.428;13.302;2022-07-22T03:36:10;18.10;99.90
35796;DHT22;21916;52.428;13.302;2022-07-22T03:38:38;18.10;99.90
35796;DHT22;21916;52.428;13.302;2022-07-22T03:41:04;18.00;99.90
35796;DHT22;21916;52.428;13.302;2022-07-22T03:43:31;18.10;99.90
35796;DHT22;21916;52.428;13.302;2022-07-22T03:45:59;18.10;99.90
35796;DHT22;21916;52.428;13.302;2022-07-22T03:48:25;18.20;99.90
35796;DHT22;21916;52.428;13.302;2022-07-22T03:50:51;18.20;99.90
35796;DHT22;21916;52.428;13.302;2022-07-22T03:53:17;18.30;99.90
35796;DHT22;21916;52.428;13.302;2022-07-22T03:55:43;18.30;99.90
35796;DHT22;21916;52.428;13.302;2022-07-22T03:58:09;18.30;99.90
35796;DHT22;21916;52.428;13.302;2022-07-22T04:00:35;18.30;99.90
35796;DHT22;21916;52.428;13.302;2022-07-22T04:03:04;18.40;99.90
35796;DHT22;21916;52.428;13.302;2022-07-22T04:05:49;18.40;99.90
35796;DHT22;21916;52.428;13.302;2022-07-22T04:08:22;18.50;99.90
35796;DHT22;21916;52.428;13.302;2022-07-22T04:10:48;18.50;99.90
35796;DHT22;21916;52.428;13.302;2022-07-22T04:13:14;18.60;99.90
35796;DHT22;21916;52.428;13.302;2022-07-22T04:15:46;18.60;99.90
35796;DHT22;21916;52.428;13.302;2022-07-22T04:18:12;18.60;99.90
35796;DHT22;21916;52.428;13.302;2022-07-22T04:20:37;18.60;99.90
35796;DHT22;21916;52.428;13.302;2022-07-22T04:23:21;18.70;99.90
35796;DHT22;21916;52.428;13.302;2022-07-22T04:25:49;18.70;99.90
35796;DHT22;21916;52.428;13.302;2022-07-22T04:28:15;18.70;99.90
35796;DHT22;21916;52.428;13.302;2022-07-22T04:30:41;18.70;99.90
35796;DHT22;21916;52.428;13.302;2022-07-22T04:33:07;18.70;99.90
35796;DHT22;21916;52.428;13.302;2022-07-22T04:35:34;18.80;99.90
35796;DHT22;21916;52.428;13.302;2022-07-22T04:38:10;18.90;99.90
35796;DHT22;21916;52.428;13.302;2022-07-22T04:40:39;18.90;99.90
35796;DHT22;21916;52.428;13.302;2022-07-22T04:43:04;19.00;99.90
35796;DHT22;21916;52.428;13.302;2022-07-22T04:45:31;19.00;99.90
35796;DHT22;21916;52.428;13.302;2022-07-22T04:47:57;19.00;99.90
35796;DHT22;21916;52.428;13.302;2022-07-22T04:50:23;19.10;99.90
35796;DHT22;21916;52.428;13.302;2022-07-22T04:52:55;19.10;99.90
35796;DHT22;21916;52.428;13.302;2022-07-22T04:55:23;19.10;99.90
35796;DHT22;21916;52.428;13.302;2022-07-22T04:57:49;19.10;99.90
35796;DHT22;21916;52.428;13.302;2022-07-22T05:00:15;19.10;99.90
35796;DHT22;21916;52.428;13.302;2022-07-22T05:02:50;19.10;99.90
35796;DHT22;21916;52.428;13.302;2022-07-22T05:05:17;19.10;99.90
35796;DHT22;21916;52.428;13.302;2022-07-22T05:07:43;19.10;99.90
35796;DHT22;21916;52.428;13.302;2022-07-22T05:10:09;19.30;99.90
35796;DHT22;21916;52.428;13.302;2022-07-22T05:12:36;19.30;99.90
35796;DHT22;21916;52.428;13.302;2022-07-22T05:15:03;19.40;99.90
35796;DHT22;21916;52.428;13.302;2022-07-22T05:17:30;19.50;99.90
35796;DHT22;21916;52.428;13.302;2022-07-22T05:20:07;19.40;99.90
35796;DHT22;21916;52.428;13.302;2022-07-22T05:22:34;19.30;99.90
35796;DHT22;21916;52.428;13.302;2022-07-22T05:25:03;19.20;99.90
35796;DHT22;21916;52.428;13.302;2022-07-22T05:27:30;19.20;99.90
35796;DHT22;21916;52.428;13.302;2022-07-22T05:29:57;19.30;99.90
35796;DHT22;21916;52.428;13.302;2022-07-22T05:32:23;19.30;99.90
35796;DHT22;21916;52.428;13.302;2022-07-22T05:34:54;19.40;99.90
35796;DHT22;21916;52.428;13.302;2022-07-22T05:37:20;19.50;99.90
35796;DHT22;21916;52.428;13.302;2022-07-22T05:39:48;19.60;99.90
35796;DHT22;21916;52.428;13.302;2022-07-22T05:42:14;19.50;99.90
35796;DHT22;21916;52.428;13.302;2022-07-22T05:44:40;19.70;99.90
35796;DHT22;21916;52.428;13.302;2022-07-22T05:47:06;19.60;99.90
35796;DHT22;21916;52.428;13.302;2022-07-22T05:49:32;19.70;99.90
35796;DHT22;21916;52.428;13.302;2022-07-22T05:52:03;19.80;99.90
35796;DHT22;21916;52.428;13.302;2022-07-22T05:54:29;19.70;99.90
35796;DHT22;21916;52.428;13.302;2022-07-22T05:56:55;19.80;99.90
35796;DHT22;21916;52.428;13.302;2022-07-22T05:59:21;19.80;99.90
35796;DHT22;21916;52.428;13.302;2022-07-22T06:01:47;19.80;99.90
35796;DHT22;21916;52.428;13.302;2022-07-22T06:04:36;19.80;99.90
35796;DHT22;21916;52.428;13.302;2022-07-22T06:07:02;19.80;99.90
35796;DHT22;21916;52.428;13.302;2022-07-22T06:09:29;19.90;99.90
35796;DHT22;21916;52.428;13.302;2022-07-22T06:11:56;20.00;99.90
35796;DHT22;21916;52.428;13.302;2022-07-22T06:14:22;20.10;99.90
35796;DHT22;21916;52.428;13.302;2022-07-22T06:16:48;20.00;99.90
35796;DHT22;21916;52.428;13.302;2022-07-22T06:19:14;20.00;99.90
35796;DHT22;21916;52.428;13.302;2022-07-22T06:21:41;20.10;99.90
35796;DHT22;21916;52.428;13.302;2022-07-22T06:24:10;20.10;99.90
35796;DHT22;21916;52.428;13.302;2022-07-22T06:26:36;20.20;99.90
35796;DHT22;21916;52.428;13.302;2022-07-22T06:29:04;20.20;99.90
35796;DHT22;21916;52.428;13.302;2022-07-22T06:31:30;20.20;99.90
35796;DHT22;21916;52.428;13.302;2022-07-22T06:33:56;20.10;99.90
35796;DHT22;21916;52.428;13.302;2022-07-22T06:36:29;20.20;99.90
35796;DHT22;21916;52.428;13.302;2022-07-22T06:38:55;20.40;99.90
35796;DHT22;21916;52.428;13.302;2022-07-22T06:41:52;20.40;99.90
35796;DHT22;21916;52.428;13.302;2022-07-22T06:44:36;20.50;99.90
35796;DHT22;21916;52.428;13.302;2022-07-22T06:47:12;20.60;99.90
35796;DHT22;21916;52.428;13.302;2022-07-22T06:49:38;20.50;99.90
35796;DHT22;21916;52.428;13.302;2022-07-22T06:52:04;20.70;99.90
35796;DHT22;21916;52.428;13.302;2022-07-22T06:54:30;20.90;99.90
35796;DHT22;21916;52.428;13.302;2022-07-22T06:56:59;21.00;99.90
35796;DHT22;21916;52.428;13.302;2022-07-22T06:59:30;21.00;99.90
35796;DHT22;21916;52.428;13.302;2022-07-22T07:01:57;21.00;99.90
35796;DHT22;21916;52.428;13.302;2022-07-22T07:04:24;21.10;99.90
35796;DHT22;21916;52.428;13.302;2022-07-22T07:06:50;21.20;99.90
35796;DHT22;21916;52.428;13.302;2022-07-22T07:09:29;21.30;99.90
35796;DHT22;21916;52.428;13.302;2022-07-22T07:12:03;21.30;99.90
35796;DHT22;21916;52.428;13.302;2022-07-22T07:14:48;21.50;99.90
35796;DHT22;21916;52.428;13.302;2022-07-22T07:17:14;21.60;99.90
35796;DHT22;21916;52.428;13.302;2022-07-22T07:19:41;21.50;99.90
35796;DHT22;21916;52.428;13.302;2022-07-22T07:22:07;21.50;99.90
35796;DHT22;21916;52.428;13.302;2022-07-22T07:24:33;21.40;99.90
35796;DHT22;21916;52.428;13.302;2022-07-22T07:26:59;21.50;99.90
35796;DHT22;21916;52.428;13.302;2022-07-22T07:29:25;21.50;99.90
35796;DHT22;21916;52.428;13.302;2022-07-22T07:31:52;21.60;99.90
35796;DHT22;21916;52.428;13.302;2022-07-22T07:34:18;21.60;99.90
35796;DHT22;21916;52.428;13.302;2022-07-22T07:36:44;21.80;99.90
35796;DHT22;21916;52.428;13.302;2022-07-22T07:39:14;21.80;99.90
35796;DHT22;21916;52.428;13.302;2022-07-22T07:41:41;21.70;99.90
35796;DHT22;21916;52.428;13.302;2022-07-22T07:44:10;21.80;99.90
35796;DHT22;21916;52.428;13.302;2022-07-22T07:46:37;21.90;99.90
35796;DHT22;21916;52.428;13.302;2022-07-22T07:49:03;21.80;99.90
35796;DHT22;21916;52.428;13.302;2022-07-22T07:51:30;21.80;99.90
35796;DHT22;21916;52.428;13.302;2022-07-22T07:53:56;21.90;99.90
35796;DHT22;21916;52.428;13.302;2022-07-22T07:56:24;22.10;99.90
35796;DHT22;21916;52.428;13.302;2022-07-22T07:58:52;22.00;99.90
35796;DHT22;21916;52.428;13.302;2022-07-22T08:01:19;22.30;99.90
35796;DHT22;21916;52.428;13.302;2022-07-22T08:03:46;22.40;99.90
35796;DHT22;21916;52.428;13.302;2022-07-22T08:06:12;22.60;99.90
35796;DHT22;21916;52.428;13.302;2022-07-22T08:08:39;22.60;99.90
35796;DHT22;21916;52.428;13.302;2022-07-22T08:11:14;22.60;99.90
35796;DHT22;21916;52.428;13.302;2022-07-22T08:14:03;22.80;99.90
35796;DHT22;21916;52.428;13.302;2022-07-22T08:16:59;22.90;99.90
35796;DHT22;21916;52.428;13.302;2022-07-22T08:19:25;23.20;99.90
35796;DHT22;21916;52.428;13.302;2022-07-22T08:21:51;23.30;99.90
35796;DHT22;21916;52.428;13.302;2022-07-22T08:24:25;23.30;99.90
35796;DHT22;21916;52.428;13.302;2022-07-22T08:26:52;23.30;99.90
35796;DHT22;21916;52.428;13.302;2022-07-22T08:29:18;23.30;99.90
35796;DHT22;21916;52.428;13.302;2022-07-22T08:31:44;23.10;99.90
35796;DHT22;21916;52.428;13.302;2022-07-22T08:34:13;23.10;99.90
35796;DHT22;21916;52.428;13.302;2022-07-22T08:36:42;23.20;99.90
35796;DHT22;21916;52.428;13.302;2022-07-22T08:39:09;23.40;99.90
35796;DHT22;21916;52.428;13.302;2022-07-22T08:41:37;23.60;99.90
35796;DHT22;21916;52.428;13.302;2022-07-22T08:44:05;23.70;99.90
35796;DHT22;21916;52.428;13.302;2022-07-22T08:46:32;23.80;99.90
35796;DHT22;21916;52.428;13.302;2022-07-22T08:49:17;23.80;99.90
35796;DHT22;21916;52.428;13.302;2022-07-22T08:52:03;23.80;99.90
35796;DHT22;21916;52.428;13.302;2022-07-22T08:54:35;23.60;99.90
35796;DHT22;21916;52.428;13.302;2022-07-22T08:57:02;23.40;99.90
35796;DHT22;21916;52.428;13.302;2022-07-22T08:59:28;23.40;99.90
35796;DHT22;21916;52.428;13.302;2022-07-22T09:02:05;23.40;99.90
35796;DHT22;21916;52.428;13.302;2022-07-22T09:07:25;23.20;99.90
35796;DHT22;21916;52.428;13.302;2022-07-22T09:09:53;23.00;99.90
35796;DHT22;21916;52.428;13.302;2022-07-22T09:12:59;23.00;99.90
35796;DHT22;21916;52.428;13.302;2022-07-22T09:15:52;22.90;99.90
35796;DHT22;21916;52.428;13.302;2022-07-22T09:18:46;22.80;99.90
35796;DHT22;21916;52.428;13.302;2022-07-22T09:21:22;22.70;99.90
35796;DHT22;21916;52.428;13.302;2022-07-22T09:24:07;22.50;99.90
35796;DHT22;21916;52.428;13.302;2022-07-22T09:26:40;22.40;99.90
35796;DHT22;21916;52.428;13.302;2022-07-22T09:29:42;22.20;99.90
35796;DHT22;21916;52.428;13.302;2022-07-22T09:32:18;21.90;99.90
35796;DHT22;21916;52.428;13.302;2022-07-22T09:35:02;21.80;99.90
35796;DHT22;21916;52.428;13.302;2022-07-22T09:37:34;21.70;99.90
35796;DHT22;21916;52.428;13.302;2022-07-22T09:40:18;21.70;99.90
35796;DHT22;21916;52.428;13.302;2022-07-22T09:42:54;21.70;99.90
35796;DHT22;21916;52.428;13.302;2022-07-22T09:45:22;21.70;99.90
35796;DHT22;21916;52.428;13.302;2022-07-22T09:47:49;21.70;99.90
35796;DHT22;21916;52.428;13.302;2022-07-22T09:50:32;22.00;99.90
35796;DHT22;21916;52.428;13.302;2022-07-22T09:53:20;22.00;99.90
35796;DHT22;21916;52.428;13.302;2022-07-22T09:55:58;22.30;99.90
35796;DHT22;21916;52.428;13.302;2022-07-22T09:58:25;22.60;99.90
35796;DHT22;21916;52.428;13.302;2022-07-22T10:00:52;22.80;99.90
35796;DHT22;21916;52.428;13.302;2022-07-22T10:05:51;22.70;99.90
35796;DHT22;21916;52.428;13.302;2022-07-22T10:08:18;23.00;99.90
35796;DHT22;21916;52.428;13.302;2022-07-22T10:10:44;23.00;99.90
35796;DHT22;21916;52.428;13.302;2022-07-22T10:13:10;23.20;99.90
35796;DHT22;21916;52.428;13.302;2022-07-22T10:15:38;23.20;99.90
35796;DHT22;21916;52.428;13.302;2022-07-22T10:18:14;23.50;99.90
35796;DHT22;21916;52.428;13.302;2022-07-22T10:20:43;23.40;99.90
35796;DHT22;21916;52.428;13.302;2022-07-22T10:23:14;23.40;99.90
35796;DHT22;21916;52.428;13.302;2022-07-22T10:28:34;23.60;99.90
35796;DHT22;21916;52.428;13.302;2022-07-22T10:31:23;23.60;99.90
35796;DHT22;21916;52.428;13.302;2022-07-22T10:33:56;23.50;99.90
35796;DHT22;21916;52.428;13.302;2022-07-22T10:39:07;24.30;99.90
35796;DHT22;21916;52.428;13.302;2022-07-22T10:41:40;24.40;99.90
35796;DHT22;21916;52.428;13.302;2022-07-22T10:44:07;24.40;99.90
35796;DHT22;21916;52.428;13.302;2022-07-22T10:47:03;24.50;99.90
35796;DHT22;21916;52.428;13.302;2022-07-22T10:49:29;24.40;99.90
35796;DHT22;21916;52.428;13.302;2022-07-22T10:54:34;25.20;99.90
35796;DHT22;21916;52.428;13.302;2022-07-22T10:57:30;24.90;99.90
35796;DHT22;21916;52.428;13.302;2022-07-22T10:59:57;25.10;99.90
35796;DHT22;21916;52.428;13.302;2022-07-22T11:02:24;25.50;99.90
35796;DHT22;21916;52.428;13.302;2022-07-22T11:04:55;25.60;99.90
35796;DHT22;21916;52.428;13.302;2022-07-22T11:07:22;25.60;99.90
35796;DHT22;21916;52.428;13.302;2022-07-22T11:09:48;25.00;99.90
35796;DHT22;21916;52.428;13.302;2022-07-22T11:12:14;24.30;99.90
35796;DHT22;21916;52.428;13.302;2022-07-22T11:14:40;24.00;99.90
35796;DHT22;21916;52.428;13.302;2022-07-22T11:17:10;24.10;99.90
35796;DHT22;21916;52.428;13.302;2022-07-22T11:19:38;24.00;99.90
35796;DHT22;21916;52.428;13.302;2022-07-22T11:22:10;24.10;99.90
35796;DHT22;21916;52.428;13.302;2022-07-22T11:24:39;24.50;99.90
35796;DHT22;21916;52.428;13.302;2022-07-22T11:27:15;25.20;99.90
35796;DHT22;21916;52.428;13.302;2022-07-22T11:29:42;25.50;99.90
35796;DHT22;21916;52.428;13.302;2022-07-22T11:32:13;25.10;99.90
35796;DHT22;21916;52.428;13.302;2022-07-22T11:34:41;24.70;99.90
35796;DHT22;21916;52.428;13.302;2022-07-22T11:37:17;24.90;99.90
35796;DHT22;21916;52.428;13.302;2022-07-22T11:39:44;25.10;99.90
35796;DHT22;21916;52.428;13.302;2022-07-22T11:42:10;25.60;99.90
35796;DHT22;21916;52.428;13.302;2022-07-22T11:44:38;26.00;99.90
35796;DHT22;21916;52.428;13.302;2022-07-22T11:47:06;26.10;99.90
35796;DHT22;21916;52.428;13.302;2022-07-22T11:49:36;25.30;99.90
35796;DHT22;21916;52.428;13.302;2022-07-22T11:52:04;25.30;99.90
35796;DHT22;21916;52.428;13.302;2022-07-22T11:54:30;26.40;99.90
35796;DHT22;21916;52.428;13.302;2022-07-22T11:56:57;27.70;99.90
35796;DHT22;21916;52.428;13.302;2022-07-22T11:59:23;27.90;99.90
35796;DHT22;21916;52.428;13.302;2022-07-22T12:01:49;27.40;99.90
35796;DHT22;21916;52.428;13.302;2022-07-22T12:04:23;26.90;99.90
35796;DHT22;21916;52.428;13.302;2022-07-22T12:06:51;26.50;99.90
35796;DHT22;21916;52.428;13.302;2022-07-22T12:09:28;26.10;99.90
35796;DHT22;21916;52.428;13.302;2022-07-22T12:11:57;25.40;99.90
35796;DHT22;21916;52.428;13.302;2022-07-22T12:14:26;25.20;99.90
35796;DHT22;21916;52.428;13.302;2022-07-22T12:16:59;24.90;99.90
35796;DHT22;21916;52.428;13.302;2022-07-22T12:19:28;24.70;99.90
35796;DHT22;21916;52.428;13.302;2022-07-22T12:24:30;24.80;99.90
35796;DHT22;21916;52.428;13.302;2022-07-22T12:27:03;24.90;99.90
35796;DHT22;21916;52.428;13.302;2022-07-22T12:29:41;24.70;99.90
35796;DHT22;21916;52.428;13.302;2022-07-22T12:37:25;25.00;99.90
35796;DHT22;21916;52.428;13.302;2022-07-22T12:40:07;24.80;99.90
35796;DHT22;21916;52.428;13.302;2022-07-22T12:42:43;25.10;99.90
35796;DHT22;21916;52.428;13.302;2022-07-22T12:45:18;25.10;99.90
35796;DHT22;21916;52.428;13.302;2022-07-22T12:47:53;25.10;99.90
35796;DHT22;21916;52.428;13.302;2022-07-22T12:50:28;25.50;99.90
35796;DHT22;21916;52.428;13.302;2022-07-22T12:55:31;26.50;99.90
35796;DHT22;21916;52.428;13.302;2022-07-22T12:57:57;27.00;99.90
35796;DHT22;21916;52.428;13.302;2022-07-22T13:00:26;27.60;99.90
35796;DHT22;21916;52.428;13.302;2022-07-22T13:02:52;27.80;99.90
35796;DHT22;21916;52.428;13.302;2022-07-22T13:05:20;27.90;99.50
35796;DHT22;21916;52.428;13.302;2022-07-22T13:07:46;27.70;99.90
35796;DHT22;21916;52.428;13.302;2022-07-22T13:10:13;27.30;99.90
35796;DHT22;21916;52.428;13.302;2022-07-22T13:12:40;27.20;99.90
35796;DHT22;21916;52.428;13.302;2022-07-22T13:15:07;27.00;99.90
35796;DHT22;21916;52.428;13.302;2022-07-22T13:17:34;26.40;99.90
35796;DHT22;21916;52.428;13.302;2022-07-22T13:20:02;26.20;99.90
35796;DHT22;21916;52.428;13.302;2022-07-22T13:22:28;26.00;99.90
35796;DHT22;21916;52.428;13.302;2022-07-22T13:24:54;26.50;99.90
35796;DHT22;21916;52.428;13.302;2022-07-22T13:27:20;27.90;99.80
35796;DHT22;21916;52.428;13.302;2022-07-22T13:29:47;27.90;99.20
35796;DHT22;21916;52.428;13.302;2022-07-22T13:32:14;28.60;99.00
35796;DHT22;21916;52.428;13.302;2022-07-22T13:34:41;30.40;96.80
35796;DHT22;21916;52.428;13.302;2022-07-22T13:37:07;31.10;95.90
35796;DHT22;21916;52.428;13.302;2022-07-22T13:39:38;32.30;94.00
35796;DHT22;21916;52.428;13.302;2022-07-22T13:42:06;32.30;92.70
35796;DHT22;21916;52.428;13.302;2022-07-22T13:44:33;31.20;93.30
35796;DHT22;21916;52.428;13.302;2022-07-22T13:47:01;31.10;93.30
35796;DHT22;21916;52.428;13.302;2022-07-22T13:49:28;30.50;93.70
35796;DHT22;21916;52.428;13.302;2022-07-22T13:51:53;30.40;93.50
35796;DHT22;21916;52.428;13.302;2022-07-22T13:54:20;30.60;93.60
35796;DHT22;21916;52.428;13.302;2022-07-22T13:56:50;30.10;93.20
35796;DHT22;21916;52.428;13.302;2022-07-22T13:59:20;29.10;94.10
35796;DHT22;21916;52.428;13.302;2022-07-22T14:01:54;27.70;95.40
35796;DHT22;21916;52.428;13.302;2022-07-22T14:04:25;28.40;95.40
35796;DHT22;21916;52.428;13.302;2022-07-22T14:06:51;30.70;93.40
35796;DHT22;21916;52.428;13.302;2022-07-22T14:09:18;31.30;91.80
35796;DHT22;21916;52.428;13.302;2022-07-22T14:11:47;29.60;93.30
35796;DHT22;21916;52.428;13.302;2022-07-22T14:14:13;29.60;93.40
35796;DHT22;21916;52.428;13.302;2022-07-22T14:16:39;29.90;92.90
35796;DHT22;21916;52.428;13.302;2022-07-22T14:19:09;29.80;92.90
35796;DHT22;21916;52.428;13.302;2022-07-22T14:21:39;28.60;93.90
35796;DHT22;21916;52.428;13.302;2022-07-22T14:24:07;28.10;95.00
35796;DHT22;21916;52.428;13.302;2022-07-22T14:26:34;29.30;93.90
35796;DHT22;21916;52.428;13.302;2022-07-22T14:29:00;30.90;92.60
35796;DHT22;21916;52.428;13.302;2022-07-22T14:31:27;31.90;91.20
35796;DHT22;21916;52.428;13.302;2022-07-22T14:33:55;32.60;90.50
35796;DHT22;21916;52.428;13.302;2022-07-22T14:36:21;32.80;89.90
35796;DHT22;21916;52.428;13.302;2022-07-22T14:38:48;32.40;89.10
35796;DHT22;21916;52.428;13.302;2022-07-22T14:41:16;32.20;89.30
35796;DHT22;21916;52.428;13.302;2022-07-22T14:43:42;32.20;87.60
35796;DHT22;21916;52.428;13.302;2022-07-22T14:46:09;31.20;89.30
35796;DHT22;21916;52.428;13.302;2022-07-22T14:48:37;31.70;89.60
35796;DHT22;21916;52.428;13.302;2022-07-22T14:51:04;33.00;86.70
35796;DHT22;21916;52.428;13.302;2022-07-22T14:53:30;31.80;88.40
35796;DHT22;21916;52.428;13.302;2022-07-22T14:55:57;31.80;87.70
35796;DHT22;21916;52.428;13.302;2022-07-22T14:58:23;31.00;89.00
35796;DHT22;21916;52.428;13.302;2022-07-22T15:00:49;31.40;88.40
35796;DHT22;21916;52.428;13.302;2022-07-22T15:03:15;30.20;90.40
35796;DHT22;21916;52.428;13.302;2022-07-22T15:05:41;30.50;90.30
35796;DHT22;21916;52.428;13.302;2022-07-22T15:08:09;30.60;89.80
35796;DHT22;21916;52.428;13.302;2022-07-22T15:10:35;31.50;89.50
35796;DHT22;21916;52.428;13.302;2022-07-22T15:13:02;33.60;86.40
35796;DHT22;21916;52.428;13.302;2022-07-22T15:15:29;34.00;83.80
35796;DHT22;21916;52.428;13.302;2022-07-22T15:17:56;33.10;83.40
35796;DHT22;21916;52.428;13.302;2022-07-22T15:20:24;32.40;84.90
35796;DHT22;21916;52.428;13.302;2022-07-22T15:22:51;32.40;85.30
35796;DHT22;21916;52.428;13.302;2022-07-22T15:25:17;33.40;83.60
35796;DHT22;21916;52.428;13.302;2022-07-22T15:27:43;34.50;83.00
35796;DHT22;21916;52.428;13.302;2022-07-22T15:30:12;33.00;81.90
35796;DHT22;21916;52.428;13.302;2022-07-22T15:32:40;32.20;83.50
35796;DHT22;21916;52.428;13.302;2022-07-22T15:35:07;32.00;84.00
35796;DHT22;21916;52.428;13.302;2022-07-22T15:37:33;32.30;84.40
35796;DHT22;21916;52.428;13.302;2022-07-22T15:40:01;33.80;82.90
35796;DHT22;21916;52.428;13.302;2022-07-22T15:42:35;34.10;81.60
35796;DHT22;21916;52.428;13.302;2022-07-22T15:45:06;33.10;81.10
35796;DHT22;21916;52.428;13.302;2022-07-22T15:47:34;32.10;82.40
35796;DHT22;21916;52.428;13.302;2022-07-22T15:50:01;31.20;83.90
35796;DHT22;21916;52.428;13.302;2022-07-22T15:52:27;31.10;85.70